sensor_id;sensor_type;location;lat;lon;timestamp;P1;durP1;ratioP1;P2;durP2;ratioP2
28828;SDS011;15966;51.540;11.870;2023-11-21T00:02:20;9.27;;;3.92;;
28828;SDS011;15966;51.540;11.870;2023-11-21T00:04:47;7.03;;;3.67;;
28828;SDS011;15966;51.540;11.870;2023-11-21T00:07:14;5.57;;;4.22;;
28828;SDS011;15966;51.540;11.870;2023-11-21T00:09:40;6.00;;;3.78;;
28828;SDS011;15966;51.540;11.870;2023-11-21T00:12:06;8.57;;;4.90;;
28828;SDS011;15966;51.540;11.870;2023-11-21T00:14:36;6.78;;;3.97;;
28828;SDS011;15966;51.540;11.870;2023-11-21T00:17:03;4.60;;;3.65;;
28828;SDS011;15966;51.540;11.870;2023-11-21T00:19:30;3.25;;;2.90;;
28828;SDS011;15966;51.540;11.870;2023-11-21T00:21:56;8.95;;;4.10;;
28828;SDS011;15966;51.540;11.870;2023-11-21T00:24:23;17.40;;;3.75;;
28828;SDS011;15966;51.540;11.870;2023-11-21T00:26:50;6.35;;;3.83;;
28828;SDS011;15966;51.540;11.870;2023-11-21T00:29:16;7.03;;;3.95;;
28828;SDS011;15966;51.540;11.870;2023-11-21T00:31:43;3.63;;;3.03;;
28828;SDS011;15966;51.540;11.870;2023-11-21T00:34:11;7.07;;;3.97;;
28828;SDS011;15966;51.540;11.870;2023-11-21T00:36:37;5.05;;;4.22;;
28828;SDS011;15966;51.540;11.870;2023-11-21T00:39:03;6.80;;;3.85;;
28828;SDS011;15966;51.540;11.870;2023-11-21T00:41:31;6.03;;;4.30;;
28828;SDS011;15966;51.540;11.870;2023-11-21T00:43:57;9.85;;;5.68;;
28828;SDS011;15966;51.540;11.870;2023-11-21T00:46:24;5.63;;;4.63;;
28828;SDS011;15966;51.540;11.870;2023-11-21T00:48:53;4.60;;;4.20;;
28828;SDS011;15966;51.540;11.870;2023-11-21T00:51:19;6.03;;;4.53;;
28828;SDS011;15966;51.540;11.870;2023-11-21T00:53:47;4.63;;;3.35;;
28828;SDS011;15966;51.540;11.870;2023-11-21T00:56:13;4.47;;;3.97;;
28828;SDS011;15966;51.540;11.870;2023-11-21T00:58:40;4.60;;;4.00;;
28828;SDS011;15966;51.540;11.870;2023-11-21T01:01:09;4.35;;;3.67;;
28828;SDS011;15966;51.540;11.870;2023-11-21T01:03:35;4.40;;;3.80;;
28828;SDS011;15966;51.540;11.870;2023-11-21T01:06:01;4.88;;;3.33;;
28828;SDS011;15966;51.540;11.870;2023-11-21T01:08:27;7.30;;;3.30;;
28828;SDS011;15966;51.540;11.870;2023-11-21T01:10:53;4.43;;;3.70;;
28828;SDS011;15966;51.540;11.870;2023-11-21T01:13:20;8.40;;;4.43;;
28828;SDS011;15966;51.540;11.870;2023-11-21T01:15:46;5.35;;;4.20;;
28828;SDS011;15966;51.540;11.870;2023-11-21T01:18:12;6.25;;;4.18;;
28828;SDS011;15966;51.540;11.870;2023-11-21T01:20:38;5.47;;;4.22;;
28828;SDS011;15966;51.540;11.870;2023-11-21T01:23:05;4.68;;;4.22;;
28828;SDS011;15966;51.540;11.870;2023-11-21T01:25:31;5.88;;;4.53;;
28828;SDS011;15966;51.540;11.870;2023-11-21T01:27:57;4.30;;;3.35;;
28828;SDS011;15966;51.540;11.870;2023-11-21T01:30:23;5.38;;;4.25;;
28828;SDS011;15966;51.540;11.870;2023-11-21T01:32:50;5.80;;;4.27;;
28828;SDS011;15966;51.540;11.870;2023-11-21T01:35:16;6.22;;;3.90;;
28828;SDS011;15966;51.540;11.870;2023-11-21T01:37:42;4.57;;;4.10;;
28828;SDS011;15966;51.540;11.870;2023-11-21T01:40:08;5.25;;;3.50;;
28828;SDS011;15966;51.540;11.870;2023-11-21T01:42:38;7.05;;;4.55;;
28828;SDS011;15966;51.540;11.870;2023-11-21T01:45:05;7.13;;;4.82;;
28828;SDS011;15966;51.540;11.870;2023-11-21T01:47:32;7.97;;;4.40;;
28828;SDS011;15966;51.540;11.870;2023-11-21T01:49:59;8.13;;;4.47;;
28828;SDS011;15966;51.540;11.870;2023-11-21T01:52:25;5.97;;;4.75;;
28828;SDS011;15966;51.540;11.870;2023-11-21T01:54:52;5.47;;;4.43;;
28828;SDS011;15966;51.540;11.870;2023-11-21T01:57:19;5.35;;;4.85;;
28828;SDS011;15966;51.540;11.870;2023-11-21T01:59:45;5.63;;;4.68;;
28828;SDS011;15966;51.540;11.870;2023-11-21T02:02:13;9.98;;;5.95;;
28828;SDS011;15966;51.540;11.870;2023-11-21T02:04:40;5.63;;;4.50;;
28828;SDS011;15966;51.540;11.870;2023-11-21T02:07:06;9.23;;;5.25;;
28828;SDS011;15966;51.540;11.870;2023-11-21T02:09:33;7.35;;;5.07;;
28828;SDS011;15966;51.540;11.870;2023-11-21T02:11:59;6.25;;;4.75;;
28828;SDS011;15966;51.540;11.870;2023-11-21T02:14:26;6.43;;;4.70;;
28828;SDS011;15966;51.540;11.870;2023-11-21T02:16:53;7.47;;;5.47;;
28828;SDS011;15966;51.540;11.870;2023-11-21T02:19:22;7.45;;;5.10;;
28828;SDS011;15966;51.540;11.870;2023-11-21T02:21:50;5.20;;;4.70;;
28828;SDS011;15966;51.540;11.870;2023-11-21T02:24:21;8.50;;;5.65;;
28828;SDS011;15966;51.540;11.870;2023-11-21T02:26:47;8.32;;;5.50;;
28828;SDS011;15966;51.540;11.870;2023-11-21T02:29:16;8.23;;;6.15;;
28828;SDS011;15966;51.540;11.870;2023-11-21T02:31:43;5.38;;;4.28;;
28828;SDS011;15966;51.540;11.870;2023-11-21T02:34:14;12.57;;;5.70;;
28828;SDS011;15966;51.540;11.870;2023-11-21T02:36:40;6.97;;;5.30;;
28828;SDS011;15966;51.540;11.870;2023-11-21T02:39:07;8.30;;;5.03;;
28828;SDS011;15966;51.540;11.870;2023-11-21T02:41:34;5.57;;;4.97;;
28828;SDS011;15966;51.540;11.870;2023-11-21T02:44:00;7.25;;;5.20;;
28828;SDS011;15966;51.540;11.870;2023-11-21T02:46:26;6.53;;;4.95;;
28828;SDS011;15966;51.540;11.870;2023-11-21T02:48:52;7.63;;;4.85;;
28828;SDS011;15966;51.540;11.870;2023-11-21T02:51:19;8.15;;;4.28;;
28828;SDS011;15966;51.540;11.870;2023-11-21T02:53:45;9.07;;;4.85;;
28828;SDS011;15966;51.540;11.870;2023-11-21T02:56:12;7.25;;;5.55;;
28828;SDS011;15966;51.540;11.870;2023-11-21T02:58:41;6.28;;;5.07;;
28828;SDS011;15966;51.540;11.870;2023-11-21T03:01:08;8.23;;;5.30;;
28828;SDS011;15966;51.540;11.870;2023-11-21T03:03:36;8.20;;;5.55;;
28828;SDS011;15966;51.540;11.870;2023-11-21T03:06:05;7.90;;;4.93;;
28828;SDS011;15966;51.540;11.870;2023-11-21T03:08:31;5.53;;;4.30;;
28828;SDS011;15966;51.540;11.870;2023-11-21T03:10:58;6.82;;;4.85;;
28828;SDS011;15966;51.540;11.870;2023-11-21T03:13:24;5.53;;;4.63;;
28828;SDS011;15966;51.540;11.870;2023-11-21T03:15:50;4.30;;;3.90;;
28828;SDS011;15966;51.540;11.870;2023-11-21T03:18:16;7.57;;;5.50;;
28828;SDS011;15966;51.540;11.870;2023-11-21T03:20:43;6.47;;;4.90;;
28828;SDS011;15966;51.540;11.870;2023-11-21T03:23:12;6.50;;;5.70;;
28828;SDS011;15966;51.540;11.870;2023-11-21T03:25:38;5.35;;;4.45;;
28828;SDS011;15966;51.540;11.870;2023-11-21T03:28:04;6.28;;;5.10;;
28828;SDS011;15966;51.540;11.870;2023-11-21T03:30:30;9.90;;;4.88;;
28828;SDS011;15966;51.540;11.870;2023-11-21T03:32:56;7.70;;;6.40;;
28828;SDS011;15966;51.540;11.870;2023-11-21T03:35:23;7.60;;;6.60;;
28828;SDS011;15966;51.540;11.870;2023-11-21T03:37:49;7.68;;;5.63;;
28828;SDS011;15966;51.540;11.870;2023-11-21T03:40:15;6.68;;;5.43;;
28828;SDS011;15966;51.540;11.870;2023-11-21T03:42:41;10.48;;;6.10;;
28828;SDS011;15966;51.540;11.870;2023-11-21T03:45:08;6.93;;;4.75;;
28828;SDS011;15966;51.540;11.870;2023-11-21T03:47:34;6.05;;;5.20;;
28828;SDS011;15966;51.540;11.870;2023-11-21T03:50:00;7.78;;;5.82;;
28828;SDS011;15966;51.540;11.870;2023-11-21T03:52:26;6.85;;;4.75;;
28828;SDS011;15966;51.540;11.870;2023-11-21T03:54:53;5.72;;;5.15;;
28828;SDS011;15966;51.540;11.870;2023-11-21T03:57:20;7.43;;;5.47;;
28828;SDS011;15966;51.540;11.870;2023-11-21T03:59:46;7.65;;;5.85;;
28828;SDS011;15966;51.540;11.870;2023-11-21T04:02:12;8.07;;;6.07;;
28828;SDS011;15966;51.540;11.870;2023-11-21T04:04:38;10.25;;;6.88;;
28828;SDS011;15966;51.540;11.870;2023-11-21T04:07:05;8.27;;;6.38;;
28828;SDS011;15966;51.540;11.870;2023-11-21T04:09:31;11.88;;;6.35;;
28828;SDS011;15966;51.540;11.870;2023-11-21T04:11:57;7.53;;;6.10;;
28828;SDS011;15966;51.540;11.870;2023-11-21T04:14:23;6.65;;;5.82;;
28828;SDS011;15966;51.540;11.870;2023-11-21T04:16:49;9.43;;;6.25;;
28828;SDS011;15966;51.540;11.870;2023-11-21T04:19:15;7.57;;;6.18;;
28828;SDS011;15966;51.540;11.870;2023-11-21T04:21:42;12.75;;;7.28;;
28828;SDS011;15966;51.540;11.870;2023-11-21T04:24:08;12.38;;;6.90;;
28828;SDS011;15966;51.540;11.870;2023-11-21T04:26:34;8.13;;;6.43;;
28828;SDS011;15966;51.540;11.870;2023-11-21T04:29:01;6.82;;;6.13;;
28828;SDS011;15966;51.540;11.870;2023-11-21T04:31:27;9.50;;;6.57;;
28828;SDS011;15966;51.540;11.870;2023-11-21T04:33:53;8.20;;;6.55;;
28828;SDS011;15966;51.540;11.870;2023-11-21T04:36:19;8.75;;;6.15;;
28828;SDS011;15966;51.540;11.870;2023-11-21T04:38:45;7.53;;;6.05;;
28828;SDS011;15966;51.540;11.870;2023-11-21T04:41:11;7.43;;;5.72;;
28828;SDS011;15966;51.540;11.870;2023-11-21T04:43:37;7.25;;;6.55;;
28828;SDS011;15966;51.540;11.870;2023-11-21T04:46:03;7.90;;;6.13;;
28828;SDS011;15966;51.540;11.870;2023-11-21T04:48:30;12.85;;;8.30;;
28828;SDS011;15966;51.540;11.870;2023-11-21T04:50:56;12.70;;;8.00;;
28828;SDS011;15966;51.540;11.870;2023-11-21T04:53:22;8.93;;;7.00;;
28828;SDS011;15966;51.540;11.870;2023-11-21T04:55:48;7.65;;;6.63;;
28828;SDS011;15966;51.540;11.870;2023-11-21T04:58:14;8.20;;;6.45;;
28828;SDS011;15966;51.540;11.870;2023-11-21T05:00:40;8.23;;;6.20;;
28828;SDS011;15966;51.540;11.870;2023-11-21T05:03:06;7.03;;;5.88;;
28828;SDS011;15966;51.540;11.870;2023-11-21T05:05:33;8.90;;;6.85;;
28828;SDS011;15966;51.540;11.870;2023-11-21T05:07:59;8.25;;;5.95;;
28828;SDS011;15966;51.540;11.870;2023-11-21T05:10:26;13.27;;;7.47;;
28828;SDS011;15966;51.540;11.870;2023-11-21T05:12:52;7.75;;;6.88;;
28828;SDS011;15966;51.540;11.870;2023-11-21T05:15:18;9.50;;;6.65;;
28828;SDS011;15966;51.540;11.870;2023-11-21T05:17:45;7.57;;;6.38;;
28828;SDS011;15966;51.540;11.870;2023-11-21T05:20:12;10.32;;;6.43;;
28828;SDS011;15966;51.540;11.870;2023-11-21T05:22:39;6.50;;;5.57;;
28828;SDS011;15966;51.540;11.870;2023-11-21T05:25:05;7.72;;;6.45;;
28828;SDS011;15966;51.540;11.870;2023-11-21T05:27:36;8.68;;;6.00;;
28828;SDS011;15966;51.540;11.870;2023-11-21T05:30:03;12.90;;;6.95;;
28828;SDS011;15966;51.540;11.870;2023-11-21T05:32:30;14.75;;;6.40;;
28828;SDS011;15966;51.540;11.870;2023-11-21T05:34:56;9.75;;;5.93;;
28828;SDS011;15966;51.540;11.870;2023-11-21T05:37:23;7.07;;;5.90;;
28828;SDS011;15966;51.540;11.870;2023-11-21T05:39:51;18.95;;;7.50;;
28828;SDS011;15966;51.540;11.870;2023-11-21T05:42:18;13.93;;;7.47;;
28828;SDS011;15966;51.540;11.870;2023-11-21T05:44:44;9.68;;;7.32;;
28828;SDS011;15966;51.540;11.870;2023-11-21T05:47:10;12.68;;;7.25;;
28828;SDS011;15966;51.540;11.870;2023-11-21T05:52:04;14.18;;;7.72;;
28828;SDS011;15966;51.540;11.870;2023-11-21T05:54:31;23.73;;;8.88;;
28828;SDS011;15966;51.540;11.870;2023-11-21T05:56:57;12.02;;;8.50;;
28828;SDS011;15966;51.540;11.870;2023-11-21T05:59:23;13.65;;;7.57;;
28828;SDS011;15966;51.540;11.870;2023-11-21T06:01:50;13.70;;;8.07;;
28828;SDS011;15966;51.540;11.870;2023-11-21T06:04:16;13.98;;;8.15;;
28828;SDS011;15966;51.540;11.870;2023-11-21T06:06:43;10.95;;;7.88;;
28828;SDS011;15966;51.540;11.870;2023-11-21T06:09:09;12.18;;;8.07;;
28828;SDS011;15966;51.540;11.870;2023-11-21T06:11:36;13.32;;;8.50;;
28828;SDS011;15966;51.540;11.870;2023-11-21T06:14:03;8.35;;;7.45;;
28828;SDS011;15966;51.540;11.870;2023-11-21T06:16:31;15.02;;;9.13;;
28828;SDS011;15966;51.540;11.870;2023-11-21T06:18:57;14.60;;;8.60;;
28828;SDS011;15966;51.540;11.870;2023-11-21T06:21:23;16.00;;;8.60;;
28828;SDS011;15966;51.540;11.870;2023-11-21T06:23:49;16.60;;;8.45;;
28828;SDS011;15966;51.540;11.870;2023-11-21T06:26:15;10.43;;;7.40;;
28828;SDS011;15966;51.540;11.870;2023-11-21T06:28:41;10.13;;;8.32;;
28828;SDS011;15966;51.540;11.870;2023-11-21T06:31:07;10.85;;;7.65;;
28828;SDS011;15966;51.540;11.870;2023-11-21T06:33:33;11.65;;;7.80;;
28828;SDS011;15966;51.540;11.870;2023-11-21T06:36:00;13.73;;;7.80;;
28828;SDS011;15966;51.540;11.870;2023-11-21T06:38:29;12.93;;;7.80;;
28828;SDS011;15966;51.540;11.870;2023-11-21T06:40:57;19.50;;;9.73;;
28828;SDS011;15966;51.540;11.870;2023-11-21T06:43:23;19.20;;;10.80;;
28828;SDS011;15966;51.540;11.870;2023-11-21T06:45:49;15.38;;;9.07;;
28828;SDS011;15966;51.540;11.870;2023-11-21T06:48:15;17.75;;;10.95;;
28828;SDS011;15966;51.540;11.870;2023-11-21T06:50:41;24.08;;;13.02;;
28828;SDS011;15966;51.540;11.870;2023-11-21T06:53:07;28.60;;;12.43;;
28828;SDS011;15966;51.540;11.870;2023-11-21T06:55:34;24.20;;;12.48;;
28828;SDS011;15966;51.540;11.870;2023-11-21T06:58:01;25.80;;;13.90;;
28828;SDS011;15966;51.540;11.870;2023-11-21T07:00:27;39.53;;;17.77;;
28828;SDS011;15966;51.540;11.870;2023-11-21T07:02:53;36.95;;;19.58;;
28828;SDS011;15966;51.540;11.870;2023-11-21T07:05:20;36.17;;;21.47;;
28828;SDS011;15966;51.540;11.870;2023-11-21T07:07:47;44.55;;;27.20;;
28828;SDS011;15966;51.540;11.870;2023-11-21T07:10:15;55.38;;;33.03;;
28828;SDS011;15966;51.540;11.870;2023-11-21T07:12:41;39.58;;;25.25;;
28828;SDS011;15966;51.540;11.870;2023-11-21T07:15:08;42.25;;;25.45;;
28828;SDS011;15966;51.540;11.870;2023-11-21T07:17:34;39.00;;;25.48;;
28828;SDS011;15966;51.540;11.870;2023-11-21T07:20:01;28.80;;;18.05;;
28828;SDS011;15966;51.540;11.870;2023-11-21T07:22:28;23.80;;;14.33;;
28828;SDS011;15966;51.540;11.870;2023-11-21T07:24:54;22.92;;;14.13;;
28828;SDS011;15966;51.540;11.870;2023-11-21T07:27:21;17.88;;;13.18;;
28828;SDS011;15966;51.540;11.870;2023-11-21T07:29:47;18.77;;;13.23;;
28828;SDS011;15966;51.540;11.870;2023-11-21T07:32:14;17.73;;;12.93;;
28828;SDS011;15966;51.540;11.870;2023-11-21T07:34:40;12.10;;;10.00;;
28828;SDS011;15966;51.540;11.870;2023-11-21T07:37:07;12.95;;;9.43;;
28828;SDS011;15966;51.540;11.870;2023-11-21T07:39:37;10.65;;;7.93;;
28828;SDS011;15966;51.540;11.870;2023-11-21T07:42:06;13.43;;;9.02;;
28828;SDS011;15966;51.540;11.870;2023-11-21T07:44:33;10.35;;;8.98;;
28828;SDS011;15966;51.540;11.870;2023-11-21T07:46:59;10.48;;;9.05;;
28828;SDS011;15966;51.540;11.870;2023-11-21T07:49:25;9.75;;;8.25;;
28828;SDS011;15966;51.540;11.870;2023-11-21T07:51:51;11.07;;;8.05;;
28828;SDS011;15966;51.540;11.870;2023-11-21T07:54:18;11.45;;;8.13;;
28828;SDS011;15966;51.540;11.870;2023-11-21T07:56:44;13.60;;;8.93;;
28828;SDS011;15966;51.540;11.870;2023-11-21T07:59:10;14.52;;;9.13;;
28828;SDS011;15966;51.540;11.870;2023-11-21T08:01:37;13.38;;;8.90;;
28828;SDS011;15966;51.540;11.870;2023-11-21T08:04:05;13.32;;;10.93;;
28828;SDS011;15966;51.540;11.870;2023-11-21T08:06:31;15.15;;;11.65;;
28828;SDS011;15966;51.540;11.870;2023-11-21T08:08:58;14.45;;;11.85;;
28828;SDS011;15966;51.540;11.870;2023-11-21T08:11:24;16.60;;;12.20;;
28828;SDS011;15966;51.540;11.870;2023-11-21T08:13:51;14.85;;;12.00;;
28828;SDS011;15966;51.540;11.870;2023-11-21T08:18:45;16.08;;;12.57;;
28828;SDS011;15966;51.540;11.870;2023-11-21T08:21:14;17.95;;;13.77;;
28828;SDS011;15966;51.540;11.870;2023-11-21T08:23:40;18.65;;;13.88;;
28828;SDS011;15966;51.540;11.870;2023-11-21T08:26:06;18.98;;;15.13;;
28828;SDS011;15966;51.540;11.870;2023-11-21T08:28:33;23.40;;;17.75;;
28828;SDS011;15966;51.540;11.870;2023-11-21T08:31:00;22.65;;;15.85;;
28828;SDS011;15966;51.540;11.870;2023-11-21T08:33:26;17.92;;;15.00;;
28828;SDS011;15966;51.540;11.870;2023-11-21T08:35:52;22.30;;;16.77;;
28828;SDS011;15966;51.540;11.870;2023-11-21T08:38:18;20.75;;;16.05;;
28828;SDS011;15966;51.540;11.870;2023-11-21T08:40:44;28.00;;;19.23;;
28828;SDS011;15966;51.540;11.870;2023-11-21T08:43:11;26.08;;;18.85;;
28828;SDS011;15966;51.540;11.870;2023-11-21T08:45:37;22.35;;;17.80;;
28828;SDS011;15966;51.540;11.870;2023-11-21T08:48:03;23.23;;;17.42;;
28828;SDS011;15966;51.540;11.870;2023-11-21T08:50:30;28.10;;;18.70;;
28828;SDS011;15966;51.540;11.870;2023-11-21T08:52:56;22.63;;;17.05;;
28828;SDS011;15966;51.540;11.870;2023-11-21T08:55:22;24.98;;;18.90;;
28828;SDS011;15966;51.540;11.870;2023-11-21T08:57:48;25.90;;;18.00;;
28828;SDS011;15966;51.540;11.870;2023-11-21T09:00:15;25.92;;;18.65;;
28828;SDS011;15966;51.540;11.870;2023-11-21T09:02:42;27.58;;;19.02;;
28828;SDS011;15966;51.540;11.870;2023-11-21T09:05:09;23.15;;;18.10;;
28828;SDS011;15966;51.540;11.870;2023-11-21T09:07:36;24.10;;;18.45;;
28828;SDS011;15966;51.540;11.870;2023-11-21T09:10:03;23.40;;;17.83;;
28828;SDS011;15966;51.540;11.870;2023-11-21T09:12:32;24.20;;;18.25;;
28828;SDS011;15966;51.540;11.870;2023-11-21T09:15:00;23.25;;;17.25;;
28828;SDS011;15966;51.540;11.870;2023-11-21T09:17:27;21.20;;;18.48;;
28828;SDS011;15966;51.540;11.870;2023-11-21T09:19:53;22.08;;;18.50;;
28828;SDS011;15966;51.540;11.870;2023-11-21T09:22:19;22.92;;;17.55;;
28828;SDS011;15966;51.540;11.870;2023-11-21T09:24:45;25.02;;;18.98;;
28828;SDS011;15966;51.540;11.870;2023-11-21T09:27:13;22.58;;;16.83;;
28828;SDS011;15966;51.540;11.870;2023-11-21T09:29:40;24.40;;;18.63;;
28828;SDS011;15966;51.540;11.870;2023-11-21T09:32:06;24.95;;;18.85;;
28828;SDS011;15966;51.540;11.870;2023-11-21T09:34:33;21.17;;;17.42;;
28828;SDS011;15966;51.540;11.870;2023-11-21T09:37:03;19.58;;;17.48;;
28828;SDS011;15966;51.540;11.870;2023-11-21T09:39:30;26.85;;;19.67;;
28828;SDS011;15966;51.540;11.870;2023-11-21T09:41:58;24.02;;;18.20;;
28828;SDS011;15966;51.540;11.870;2023-11-21T09:45:15;24.27;;;18.17;;
28828;SDS011;15966;51.540;11.870;2023-11-21T09:47:38;29.35;;;21.27;;
28828;SDS011;15966;51.540;11.870;2023-11-21T09:50:04;27.45;;;19.83;;
28828;SDS011;15966;51.540;11.870;2023-11-21T09:52:34;23.60;;;19.02;;
28828;SDS011;15966;51.540;11.870;2023-11-21T09:55:13;26.00;;;19.42;;
28828;SDS011;15966;51.540;11.870;2023-11-21T10:00:07;18.38;;;14.45;;
28828;SDS011;15966;51.540;11.870;2023-11-21T10:02:36;16.45;;;13.85;;
28828;SDS011;15966;51.540;11.870;2023-11-21T10:05:03;18.80;;;14.70;;
28828;SDS011;15966;51.540;11.870;2023-11-21T10:07:30;16.08;;;13.52;;
28828;SDS011;15966;51.540;11.870;2023-11-21T10:09:57;12.95;;;11.55;;
28828;SDS011;15966;51.540;11.870;2023-11-21T10:12:24;15.50;;;13.20;;
28828;SDS011;15966;51.540;11.870;2023-11-21T10:14:52;14.60;;;11.77;;
28828;SDS011;15966;51.540;11.870;2023-11-21T10:17:20;14.25;;;11.60;;
28828;SDS011;15966;51.540;11.870;2023-11-21T10:19:51;13.07;;;11.70;;
28828;SDS011;15966;51.540;11.870;2023-11-21T10:22:18;19.33;;;13.75;;
28828;SDS011;15966;51.540;11.870;2023-11-21T10:24:45;14.15;;;11.82;;
28828;SDS011;15966;51.540;11.870;2023-11-21T10:27:12;19.35;;;13.98;;
28828;SDS011;15966;51.540;11.870;2023-11-21T10:29:39;15.93;;;11.98;;
28828;SDS011;15966;51.540;11.870;2023-11-21T10:32:06;17.33;;;14.68;;
28828;SDS011;15966;51.540;11.870;2023-11-21T10:34:32;17.55;;;14.25;;
28828;SDS011;15966;51.540;11.870;2023-11-21T10:36:59;22.88;;;15.93;;
28828;SDS011;15966;51.540;11.870;2023-11-21T10:39:37;18.00;;;14.13;;
28828;SDS011;15966;51.540;11.870;2023-11-21T10:42:04;19.55;;;16.48;;
28828;SDS011;15966;51.540;11.870;2023-11-21T10:44:35;18.63;;;14.63;;
28828;SDS011;15966;51.540;11.870;2023-11-21T10:47:01;18.98;;;14.07;;
28828;SDS011;15966;51.540;11.870;2023-11-21T10:49:27;19.55;;;17.45;;
28828;SDS011;15966;51.540;11.870;2023-11-21T10:51:53;16.67;;;14.90;;
28828;SDS011;15966;51.540;11.870;2023-11-21T10:54:21;18.38;;;14.38;;
28828;SDS011;15966;51.540;11.870;2023-11-21T10:56:58;18.08;;;14.55;;
28828;SDS011;15966;51.540;11.870;2023-11-21T10:59:26;16.20;;;13.70;;
28828;SDS011;15966;51.540;11.870;2023-11-21T11:01:55;14.23;;;12.20;;
28828;SDS011;15966;51.540;11.870;2023-11-21T11:04:23;18.63;;;13.90;;
28828;SDS011;15966;51.540;11.870;2023-11-21T11:06:56;14.13;;;11.48;;
28828;SDS011;15966;51.540;11.870;2023-11-21T11:09:23;13.02;;;11.15;;
28828;SDS011;15966;51.540;11.870;2023-11-21T11:11:50;13.95;;;10.65;;
28828;SDS011;15966;51.540;11.870;2023-11-21T11:14:17;13.48;;;11.50;;
28828;SDS011;15966;51.540;11.870;2023-11-21T11:16:45;16.73;;;13.47;;
28828;SDS011;15966;51.540;11.870;2023-11-21T11:19:11;13.30;;;11.85;;
28828;SDS011;15966;51.540;11.870;2023-11-21T11:35:57;21.00;;;16.77;;
28828;SDS011;15966;51.540;11.870;2023-11-21T11:38:31;23.35;;;17.50;;
28828;SDS011;15966;51.540;11.870;2023-11-21T11:41:00;24.83;;;18.17;;
28828;SDS011;15966;51.540;11.870;2023-11-21T11:43:30;25.27;;;18.38;;
28828;SDS011;15966;51.540;11.870;2023-11-21T11:46:09;26.48;;;18.85;;
28828;SDS011;15966;51.540;11.870;2023-11-21T11:48:38;24.13;;;18.85;;
28828;SDS011;15966;51.540;11.870;2023-11-21T11:51:14;25.35;;;19.17;;
28828;SDS011;15966;51.540;11.870;2023-11-21T11:53:46;27.67;;;18.45;;
28828;SDS011;15966;51.540;11.870;2023-11-21T11:58:56;29.80;;;20.25;;
28828;SDS011;15966;51.540;11.870;2023-11-21T12:01:24;26.73;;;20.77;;
28828;SDS011;15966;51.540;11.870;2023-11-21T12:06:36;30.42;;;20.05;;
28828;SDS011;15966;51.540;11.870;2023-11-21T12:09:02;25.23;;;19.80;;
28828;SDS011;15966;51.540;11.870;2023-11-21T12:11:31;27.80;;;18.65;;
28828;SDS011;15966;51.540;11.870;2023-11-21T12:14:00;25.02;;;19.35;;
28828;SDS011;15966;51.540;11.870;2023-11-21T12:16:26;21.80;;;17.58;;
28828;SDS011;15966;51.540;11.870;2023-11-21T12:18:53;25.92;;;19.27;;
28828;SDS011;15966;51.540;11.870;2023-11-21T12:21:19;21.63;;;16.63;;
28828;SDS011;15966;51.540;11.870;2023-11-21T12:23:46;21.17;;;15.25;;
28828;SDS011;15966;51.540;11.870;2023-11-21T12:26:13;19.65;;;15.13;;
28828;SDS011;15966;51.540;11.870;2023-11-21T12:28:39;28.27;;;14.95;;
28828;SDS011;15966;51.540;11.870;2023-11-21T12:31:05;20.42;;;14.50;;
28828;SDS011;15966;51.540;11.870;2023-11-21T12:33:35;20.50;;;14.80;;
28828;SDS011;15966;51.540;11.870;2023-11-21T12:36:01;21.55;;;15.88;;
28828;SDS011;15966;51.540;11.870;2023-11-21T12:38:34;17.33;;;14.50;;
28828;SDS011;15966;51.540;11.870;2023-11-21T12:41:03;17.40;;;13.55;;
28828;SDS011;15966;51.540;11.870;2023-11-21T12:43:29;18.80;;;15.07;;
28828;SDS011;15966;51.540;11.870;2023-11-21T12:46:05;16.98;;;14.32;;
28828;SDS011;15966;51.540;11.870;2023-11-21T12:48:34;15.60;;;12.10;;
28828;SDS011;15966;51.540;11.870;2023-11-21T12:51:09;19.85;;;12.70;;
28828;SDS011;15966;51.540;11.870;2023-11-21T12:53:36;12.60;;;10.65;;
28828;SDS011;15966;51.540;11.870;2023-11-21T12:56:12;11.52;;;10.30;;
28828;SDS011;15966;51.540;11.870;2023-11-21T12:58:43;13.55;;;8.77;;
28828;SDS011;15966;51.540;11.870;2023-11-21T13:01:13;13.45;;;9.77;;
28828;SDS011;15966;51.540;11.870;2023-11-21T13:03:46;13.02;;;9.50;;
28828;SDS011;15966;51.540;11.870;2023-11-21T13:06:14;13.57;;;10.25;;
28828;SDS011;15966;51.540;11.870;2023-11-21T13:08:41;11.50;;;8.90;;
28828;SDS011;15966;51.540;11.870;2023-11-21T13:11:07;10.80;;;9.13;;
28828;SDS011;15966;51.540;11.870;2023-11-21T13:13:33;11.02;;;9.23;;
28828;SDS011;15966;51.540;11.870;2023-11-21T13:16:00;15.52;;;10.63;;
28828;SDS011;15966;51.540;11.870;2023-11-21T13:18:29;11.45;;;9.77;;
28828;SDS011;15966;51.540;11.870;2023-11-21T13:20:56;14.10;;;9.77;;
28828;SDS011;15966;51.540;11.870;2023-11-21T13:23:23;15.70;;;9.77;;
28828;SDS011;15966;51.540;11.870;2023-11-21T13:25:51;12.90;;;10.30;;
28828;SDS011;15966;51.540;11.870;2023-11-21T13:28:18;11.17;;;8.53;;
28828;SDS011;15966;51.540;11.870;2023-11-21T13:33:13;16.38;;;12.68;;
28828;SDS011;15966;51.540;11.870;2023-11-21T13:35:46;14.80;;;11.15;;
28828;SDS011;15966;51.540;11.870;2023-11-21T13:38:14;14.20;;;11.63;;
28828;SDS011;15966;51.540;11.870;2023-11-21T13:40:48;18.83;;;12.18;;
28828;SDS011;15966;51.540;11.870;2023-11-21T13:43:18;16.98;;;12.32;;
28828;SDS011;15966;51.540;11.870;2023-11-21T13:45:46;16.02;;;12.57;;
28828;SDS011;15966;51.540;11.870;2023-11-21T13:48:16;13.88;;;12.23;;
28828;SDS011;15966;51.540;11.870;2023-11-21T13:50:50;19.83;;;10.35;;
28828;SDS011;15966;51.540;11.870;2023-11-21T13:53:38;17.92;;;12.75;;
28828;SDS011;15966;51.540;11.870;2023-11-21T13:56:06;14.90;;;12.93;;
28828;SDS011;15966;51.540;11.870;2023-11-21T13:58:33;15.85;;;12.82;;
28828;SDS011;15966;51.540;11.870;2023-11-21T14:01:12;15.40;;;11.43;;
28828;SDS011;15966;51.540;11.870;2023-11-21T14:03:59;17.63;;;12.20;;
28828;SDS011;15966;51.540;11.870;2023-11-21T14:06:42;15.35;;;10.88;;
28828;SDS011;15966;51.540;11.870;2023-11-21T14:09:19;15.57;;;11.52;;
28828;SDS011;15966;51.540;11.870;2023-11-21T14:12:00;13.65;;;11.75;;
28828;SDS011;15966;51.540;11.870;2023-11-21T14:14:31;11.60;;;9.85;;
28828;SDS011;15966;51.540;11.870;2023-11-21T14:16:57;14.63;;;10.88;;
28828;SDS011;15966;51.540;11.870;2023-11-21T14:19:23;15.77;;;10.85;;
28828;SDS011;15966;51.540;11.870;2023-11-21T14:21:56;15.57;;;11.27;;
28828;SDS011;15966;51.540;11.870;2023-11-21T14:24:22;16.10;;;11.18;;
28828;SDS011;15966;51.540;11.870;2023-11-21T14:26:49;15.48;;;11.80;;
28828;SDS011;15966;51.540;11.870;2023-11-21T14:29:16;13.98;;;11.43;;
28828;SDS011;15966;51.540;11.870;2023-11-21T14:31:48;14.77;;;10.90;;
28828;SDS011;15966;51.540;11.870;2023-11-21T14:34:16;13.80;;;12.00;;
28828;SDS011;15966;51.540;11.870;2023-11-21T14:36:43;18.33;;;12.33;;
28828;SDS011;15966;51.540;11.870;2023-11-21T14:39:10;16.98;;;12.55;;
28828;SDS011;15966;51.540;11.870;2023-11-21T14:41:47;16.52;;;13.45;;
28828;SDS011;15966;51.540;11.870;2023-11-21T14:44:14;23.13;;;14.65;;
28828;SDS011;15966;51.540;11.870;2023-11-21T14:46:40;19.52;;;15.65;;
28828;SDS011;15966;51.540;11.870;2023-11-21T14:49:11;16.15;;;13.23;;
28828;SDS011;15966;51.540;11.870;2023-11-21T14:51:51;17.73;;;12.60;;
28828;SDS011;15966;51.540;11.870;2023-11-21T14:54:17;17.15;;;15.15;;